Архив погоды в Северо-Курильске

Метеограмма Северо-Курильск
Вторник, 16 Июля
Время местн. Темп Ветер Видим Явления Облачность нижн/средн/верх Атм. давл. Влжн Точка росы ВНГО R Сост. почвы Tg s
Напр Скр Прв ур.ст ур.м изм
11:00 +10.2° В,Ю-В 3 3 9 км дымка облачно 760 762 0 84% +7.6° 300 м - - - -
08:00 +8.8° В 1 2 6 км туман на расстоянии облачно 760 762 +0.2 90% +7.2° 300 м 0 Влажная (без луж) - -
05:00 +7.8° В 1 1 1.9 км дымка облачно 760 762 -0.2 95% +7° 200 м - - - -
02:00 +7.9° З,С-З 1 2 4 км дымка облачно 760 762 -0.2 93% +6.8° 600 м - - - -
Понедельник, 15 Июля
Время местн. Темп Ветер Видим Явления Облачность нижн/средн/верх Атм. давл. Влжн Точка росы ВНГО R Сост. почвы Tg s
Напр Скр Прв ур.ст ур.м изм
23:00 +7.9° В 1 1 4 км - облачно 760 763 +0.5 93% +6.8° 600 м - - - -
20:00 +9° штиль 0 - 9 км туман на расстоянии незначительная облачность 760 762 -0.3 87% +7° - 0 - - -
17:00 +10.5° В 2 4 30 км - незначительная облачность 760 762 -0.2 81% +7.4° - - - - -
14:00 +10.8° В 3 4 29 км - переменная облачность 761 763 -0.8 82% +7.8° 1.5 км - - - -
11:00 +8.6° В,Ю-В 3 4 8 км дымка {морось} облачно 761 764 -0.2 89% +6.9° 300 м - - - -
08:00 +7.5° штиль 0 - 1 км слабая морось с перерывами облачно 762 764 0 94% +6.6° 200 м 0 Влажная (без луж) - -
05:00 +6.8° штиль 0 - 1 км дымка облачно 762 764 -0.3 95% +6° 200 м - - - -
02:00 +7.3° штиль 0 2 1 км дымка облачно 762 764 0 94% +6.4° 200 м - - - -
Воскресенье, 14 Июля
Время местн. Темп Ветер Видим Явления Облачность нижн/средн/верх Атм. давл. Влжн Точка росы ВНГО R Сост. почвы Tg s
Напр Скр Прв ур.ст ур.м изм
23:00 +8° Ю 1 2 2 км дымка облачно 762 764 0 91% +6.7° 600 м - - - -
20:00 +9.7° С 2 5 22 км - облачно 762 764 +0.5 82% +6.8° 1 км 0 - - -
17:00 +11.7° С,С-В 3 5 40 км - незначительная облачность 761 764 0 74% +7.3° 1 км - - - -
14:00 +11.5° В 3 5 45 км - незначительная облачность 761 764 -0.3 72% +6.7° 1.5 км - - - -
11:00 +10.8° В,Ю-В 3 4 40 км - преимущественно облачно 762 764 +0.2 74% +6.4° 1 км - - - -
08:00 +9.2° В 2 3 27 км - облачно 761 764 +0.3 84% +6.6° 600 м 4 Влажная (без луж) - -
02:00 +9.5° З 1 3 4 км - облачно 760 763 +0.4 85% +7.1° 1 км - - - -
Суббота, 13 Июля
Время местн. Темп Ветер Видим Явления Облачность нижн/средн/верх Атм. давл. Влжн Точка росы ВНГО R Сост. почвы Tg s
Напр Скр Прв ур.ст ур.м изм
23:00 +9.3° штиль 0 1 4 км ливневый дождь облачно 760 762 +1.1 91% +7.9° 1 км - - - -
20:00 +10.7° В 1 2 24 км - облачно 759 761 +1.1 82% +7.8° 1 км 0 - - -
17:00 +9.8° С,С-В 3 6 8 км дымка облачно 758 760 +1 86% +7.5° 600 м - - - -
14:00 +9.3° В,Ю-В 3 5 2.3 км дымка облачно 757 759 -0.1 90% +7.7° 300 м - - - -
11:00 +10.2° Ю-В 2 4 1.8 км дымка {туман} облачно 757 759 +0.1 91% +8.8° 200 м - - - -
08:00 +8.6° С 2 3 1 км туман облачно 757 759 -0.5 96% +8° 200 м 0.3 Влажная (без луж) +9° -
05:00 +7.6° С 1 1 0.2 км туман {морось} неба не видно 757 760 -0.2 96% +7° - - - - -